Time;durP1;ratioP1;P1;durP2;ratioP2;P2;SDS_P1;SDS_P2;PMS_P1;PMS_P2;Temp;Humidity;BMP_temperature;BMP_pressure;BME280_temperature;BME280_humidity;BME280_pressure;Samples;Min_cycle;Max_cycle;Signal;HPM_P1;HPM_P2
2023/08/11 00:02:25;;;;;;;7.25;4.22;;;;;;;19.17;76.68;100207.34;5023136;28;20136;-50
2023/08/11 00:04:52;;;;;;;7.80;4.40;;;;;;;19.35;76.88;100224.69;5024277;28;20571;-50
2023/08/11 00:07:18;;;;;;;9.15;4.03;;;;;;;19.34;76.78;100211.59;5019217;28;20100;-48
2023/08/11 00:09:44;;;;;;;5.60;4.18;;;;;;;19.31;77.04;100203.88;5026925;28;20041;-47
2023/08/11 00:12:10;;;;;;;7.88;3.88;;;;;;;19.32;77.11;100201.13;5019541;28;20037;-48
2023/08/11 00:14:36;;;;;;;6.57;4.30;;;;;;;19.31;77.10;100195.97;5025654;28;20532;-49
2023/08/11 00:17:03;;;;;;;8.25;4.45;;;;;;;19.27;77.16;100197.94;5026629;28;20033;-49
2023/08/11 00:19:29;;;;;;;7.70;4.10;;;;;;;19.27;77.08;100190.00;5023885;28;20044;-49
2023/08/11 00:21:56;;;;;;;6.25;4.20;;;;;;;19.11;77.17;100167.31;5022848;28;20097;-52
2023/08/11 00:24:23;;;;;;;5.53;4.05;;;;;;;19.25;77.28;100196.34;5019241;28;20049;-51
2023/08/11 00:26:49;;;;;;;7.57;4.22;;;;;;;19.23;77.36;100192.94;5011737;28;20087;-48
2023/08/11 00:29:15;;;;;;;7.78;4.13;;;;;;;19.08;77.24;100164.88;5017244;28;20489;-51
2023/08/11 00:31:42;;;;;;;6.18;4.30;;;;;;;19.19;77.17;100183.53;5025303;28;20801;-46
2023/08/11 00:34:08;;;;;;;5.85;4.30;;;;;;;19.22;77.31;100189.44;5008902;28;20429;-48
2023/08/11 00:36:34;;;;;;;5.88;4.18;;;;;;;19.21;77.34;100192.22;5022544;28;20052;-48
2023/08/11 00:39:00;;;;;;;10.35;4.22;;;;;;;19.19;77.51;100191.44;5025674;28;20085;-51
2023/08/11 00:41:27;;;;;;;8.65;4.63;;;;;;;19.17;77.59;100190.69;5018292;28;20576;-52
2023/08/11 00:43:53;;;;;;;7.00;3.90;;;;;;;19.15;77.54;100187.31;5025692;28;20029;-52
2023/08/11 00:46:22;;;;;;;7.15;3.90;;;;;;;19.15;77.81;100192.56;5022344;28;20037;-49
2023/08/11 00:48:51;;;;;;;8.35;4.38;;;;;;;19.15;77.72;100200.47;5025777;28;20079;-48
2023/08/11 00:51:19;;;;;;;6.70;4.20;;;;;;;19.13;77.82;100200.56;5025988;28;20072;-49
2023/08/11 00:53:45;;;;;;;8.52;4.20;;;;;;;19.13;77.92;100190.03;5010347;28;20095;-52
2023/08/11 00:56:12;;;;;;;5.35;4.03;;;;;;;19.03;77.91;100176.56;5025510;28;20052;-48
2023/08/11 00:58:38;;;;;;;8.80;4.53;;;;;;;18.96;78.13;100167.34;5025538;28;20041;-50
2023/08/11 01:01:04;;;;;;;5.97;4.40;;;;;;;19.09;78.32;100188.53;5026025;28;20037;-53
2023/08/11 01:03:33;;;;;;;7.32;4.13;;;;;;;19.10;78.40;100192.00;5014747;28;20060;-50
2023/08/11 01:06:24;;;;;;;5.25;4.10;;;;;;;19.09;78.55;100195.59;5017408;28;20135;-48
2023/08/11 01:08:53;;;;;;;6.07;3.88;;;;;;;19.07;78.49;100194.81;5038335;28;20045;-47
2023/08/11 01:11:31;;;;;;;6.18;4.18;;;;;;;19.03;78.65;100184.47;5025520;28;20104;-47
2023/08/11 01:14:03;;;;;;;7.10;4.28;;;;;;;19.00;78.68;100187.28;5007305;28;20131;-51
2023/08/11 01:16:31;;;;;;;8.15;4.18;;;;;;;18.98;78.86;100191.81;5008051;28;20073;-49
2023/08/11 01:18:57;;;;;;;8.32;4.32;;;;;;;18.80;79.04;100157.81;5008532;28;20113;-53
2023/08/11 01:21:24;;;;;;;16.65;5.05;;;;;;;18.81;79.34;100170.91;4993620;28;20041;-56
2023/08/11 01:23:50;;;;;;;8.95;5.13;;;;;;;18.74;79.58;100158.19;5009791;28;20095;-51
2023/08/11 01:26:16;;;;;;;8.20;5.10;;;;;;;18.94;79.76;100192.09;5008086;28;20053;-55
2023/08/11 01:28:42;;;;;;;5.97;4.45;;;;;;;18.92;79.89;100196.59;5008475;28;20583;-54
2023/08/11 01:31:08;;;;;;;8.52;4.47;;;;;;;18.90;80.04;100194.06;5025168;28;20045;-52
2023/08/11 01:33:35;;;;;;;7.70;4.47;;;;;;;18.88;80.13;100195.94;5023686;28;20587;-53
2023/08/11 01:36:01;;;;;;;7.05;4.38;;;;;;;18.86;80.34;100191.69;5019797;28;20156;-51
2023/08/11 01:38:27;;;;;;;8.32;4.28;;;;;;;18.86;80.44;100204.88;5021983;28;20034;-52
2023/08/11 01:40:53;;;;;;;6.60;4.57;;;;;;;18.84;80.44;100193.59;5025783;28;20075;-52
2023/08/11 01:43:20;;;;;;;6.82;4.90;;;;;;;18.84;80.70;100183.06;5040441;28;20045;-54
2023/08/11 01:45:48;;;;;;;9.45;4.45;;;;;;;18.81;80.72;100185.84;5006007;28;20114;-53
2023/08/11 01:48:16;;;;;;;6.60;4.65;;;;;;;18.81;81.06;100178.81;5007271;28;20158;-49
2023/08/11 01:50:42;;;;;;;11.03;4.97;;;;;;;18.80;81.31;100173.63;5010307;28;20044;-51
2023/08/11 01:53:09;;;;;;;6.00;4.55;;;;;;;18.81;81.23;100176.16;5022703;28;20871;-58
2023/08/11 01:55:35;;;;;;;9.15;4.95;;;;;;;18.83;81.54;100170.81;4995992;28;20130;-48
2023/08/11 01:58:02;;;;;;;11.05;4.75;;;;;;;18.84;81.60;100168.06;5012184;28;20041;-47
2023/08/11 02:00:28;;;;;;;8.13;4.65;;;;;;;18.84;81.49;100170.72;5013063;28;20087;-48
2023/08/11 02:02:54;;;;;;;7.32;4.82;;;;;;;18.84;81.51;100169.88;5028616;28;20046;-50
2023/08/11 02:05:21;;;;;;;9.02;5.03;;;;;;;18.83;81.82;100166.41;5029227;28;20504;-52
2023/08/11 02:07:47;;;;;;;6.55;4.85;;;;;;;18.85;81.72;100166.28;5028001;28;20045;-47
2023/08/11 02:10:13;;;;;;;8.23;4.80;;;;;;;18.84;81.68;100165.44;5029069;28;20072;-48
2023/08/11 02:12:40;;;;;;;8.48;4.65;;;;;;;18.85;82.08;100163.66;4996745;28;20060;-49
2023/08/11 02:15:10;;;;;;;7.18;4.30;;;;;;;18.73;81.72;100138.06;5028365;28;20107;-47
2023/08/11 02:17:37;;;;;;;11.43;4.80;;;;;;;18.87;81.94;100164.41;5022672;28;20441;-52
2023/08/11 02:20:26;;;;;;;8.82;4.95;;;;;;;18.89;81.98;100173.91;5025163;28;20099;-51
2023/08/11 02:22:52;;;;;;;11.25;4.65;;;;;;;18.92;82.09;100170.25;5029141;28;20055;-52
2023/08/11 02:25:19;;;;;;;11.68;4.82;;;;;;;18.95;81.98;100170.06;5025646;28;20041;-50
2023/08/11 02:27:46;;;;;;;12.20;4.75;;;;;;;18.99;81.96;100159.25;5025886;28;20038;-48
2023/08/11 02:30:12;;;;;;;7.88;4.82;;;;;;;19.04;81.96;100156.34;5027415;28;20050;-52
2023/08/11 02:32:39;;;;;;;11.18;5.13;;;;;;;18.90;81.58;100116.78;5030170;28;20132;-48
2023/08/11 02:35:06;;;;;;;9.23;5.13;;;;;;;19.11;81.64;100151.50;5023591;28;20037;-51
2023/08/11 02:37:32;;;;;;;10.70;4.90;;;;;;;19.11;81.52;100141.81;5028609;28;20041;-54
2023/08/11 02:39:59;;;;;;;9.07;4.68;;;;;;;19.14;81.62;100152.19;5031216;28;20041;-52
2023/08/11 02:42:25;;;;;;;14.88;4.90;;;;;;;19.17;81.79;100149.34;5008298;28;20034;-52
2023/08/11 02:44:52;;;;;;;11.50;5.10;;;;;;;19.21;81.70;100148.22;5029642;28;20141;-50
2023/08/11 02:47:20;;;;;;;8.75;4.80;;;;;;;19.25;81.53;100146.25;5026335;28;20052;-49
2023/08/11 02:49:46;;;;;;;8.88;4.90;;;;;;;19.29;81.52;100147.75;5027867;28;20562;-53
2023/08/11 02:52:12;;;;;;;11.30;5.55;;;;;;;19.34;81.55;100135.13;5005543;28;20045;-51
2023/08/11 02:54:39;;;;;;;9.02;4.85;;;;;;;19.40;81.50;100137.38;5027627;28;20036;-53
2023/08/11 02:57:05;;;;;;;8.98;5.57;;;;;;;19.46;81.49;100152.84;5028077;28;20520;-53
2023/08/11 02:59:32;;;;;;;18.13;5.20;;;;;;;19.50;81.40;100151.69;5031278;28;20040;-53
2023/08/11 03:01:58;;;;;;;10.57;4.85;;;;;;;19.52;81.24;100144.53;5008882;28;20129;-53
2023/08/11 03:04:24;;;;;;;13.02;5.10;;;;;;;19.35;81.18;100098.09;5022551;28;20148;-51
2023/08/11 03:06:50;;;;;;;12.02;4.88;;;;;;;19.68;81.05;100147.88;5024603;28;20557;-47
2023/08/11 03:09:17;;;;;;;10.93;5.45;;;;;;;19.74;80.72;100150.13;5026284;28;20132;-51
2023/08/11 03:11:43;;;;;;;10.93;4.85;;;;;;;19.79;80.79;100150.66;5022223;28;20497;-51
2023/08/11 03:14:09;;;;;;;8.02;4.72;;;;;;;19.84;80.71;100139.81;4994389;28;20033;-49
2023/08/11 03:16:35;;;;;;;13.10;5.80;;;;;;;19.77;80.60;100122.69;5023626;28;20095;-51
2023/08/11 03:19:02;;;;;;;8.07;4.50;;;;;;;19.92;80.61;100120.84;5027193;28;20067;-51
2023/08/11 03:21:28;;;;;;;9.25;5.05;;;;;;;19.94;80.44;100119.78;5026695;28;20099;-51
2023/08/11 03:23:55;;;;;;;12.00;5.25;;;;;;;19.96;80.52;100125.81;5026152;28;20037;-47
2023/08/11 03:26:21;;;;;;;7.25;4.88;;;;;;;19.98;80.55;100123.94;5049737;28;20041;-51
2023/08/11 03:28:47;;;;;;;14.60;5.90;;;;;;;20.00;80.16;100126.44;5038184;28;20063;-48
2023/08/11 03:31:14;;;;;;;9.88;5.80;;;;;;;20.00;80.04;100129.94;5025254;28;20543;-47
2023/08/11 03:33:43;;;;;;;;;;;;;;;20.03;80.01;100131.53;5010948;28;20045;-51
2023/08/11 03:36:12;;;;;;;7.68;5.57;;;;;;;20.03;79.99;100139.47;5024739;28;19965;-46
2023/08/11 03:38:39;;;;;;;9.88;5.22;;;;;;;20.04;80.07;100136.72;5024948;28;20040;-49
2023/08/11 03:41:06;;;;;;;8.40;5.97;;;;;;;20.07;80.42;100130.38;5023067;28;20037;-51
2023/08/11 03:43:32;;;;;;;7.68;5.45;;;;;;;20.10;80.22;100128.38;5008081;28;20428;-48
2023/08/11 03:45:59;;;;;;;8.48;5.95;;;;;;;20.15;80.25;100149.22;5007505;28;20060;-46
2023/08/11 03:48:26;;;;;;;11.07;5.75;;;;;;;20.03;80.12;100113.06;5009205;28;20401;-46
2023/08/11 03:50:52;;;;;;;14.13;5.57;;;;;;;20.08;80.13;100109.16;5026685;28;20048;-46
2023/08/11 03:53:18;;;;;;;5.53;4.90;;;;;;;20.19;80.28;100111.94;4994044;28;20041;-47
2023/08/11 03:55:45;;;;;;;8.23;5.70;;;;;;;20.35;80.36;100140.00;5008361;28;20128;-48
2023/08/11 03:58:15;;;;;;;10.10;6.25;;;;;;;20.27;80.32;100114.06;5025263;28;20041;-47
2023/08/11 04:00:43;;;;;;;12.45;5.25;;;;;;;20.49;79.80;100140.75;5021066;28;20053;-47
2023/08/11 04:03:13;;;;;;;9.38;5.57;;;;;;;20.57;79.87;100140.19;5000559;28;20076;-49
2023/08/11 04:05:39;;;;;;;6.63;4.90;;;;;;;20.53;79.69;100107.03;5032680;28;20068;-50
2023/08/11 04:08:05;;;;;;;8.80;5.70;;;;;;;20.76;79.68;100123.94;5025727;28;20492;-46
2023/08/11 04:10:32;;;;;;;8.25;5.60;;;;;;;20.84;79.17;100108.38;4994053;28;20095;-46
2023/08/11 04:12:58;;;;;;;13.48;5.93;;;;;;;20.81;79.08;100087.47;5024914;28;20033;-50
2023/08/11 04:15:24;;;;;;;11.73;5.38;;;;;;;20.97;78.72;100111.88;5026261;28;20051;-49
2023/08/11 04:17:52;;;;;;;9.48;5.43;;;;;;;20.91;78.60;100099.94;5021880;28;20037;-47
2023/08/11 04:20:18;;;;;;;10.23;5.90;;;;;;;21.10;78.48;100115.31;5026763;28;20052;-48
2023/08/11 04:22:44;;;;;;;10.45;5.80;;;;;;;21.16;78.09;100111.44;5002370;28;20065;-48
2023/08/11 04:25:12;;;;;;;11.90;5.82;;;;;;;21.20;78.01;100105.81;5026771;28;20075;-49
2023/08/11 04:27:43;;;;;;;10.07;4.85;;;;;;;21.29;77.66;100102.53;4991304;28;20045;-49
2023/08/11 04:30:10;;;;;;;13.05;5.93;;;;;;;21.15;77.32;100065.63;5024113;28;20060;-48
2023/08/11 04:32:38;;;;;;;;;;;;;;;21.48;77.05;100094.09;5050705;28;20139;-47
2023/08/11 04:35:08;;;;;;;6.60;4.90;;;;;;;21.54;76.73;100104.25;5024776;28;19959;-51
2023/08/11 04:37:36;;;;;;;7.65;4.85;;;;;;;21.63;75.95;100106.22;5009397;28;20521;-48
2023/08/11 04:40:09;;;;;;;7.72;4.82;;;;;;;21.70;75.79;100107.47;5007856;28;20049;-47
2023/08/11 04:42:36;;;;;;;8.70;4.75;;;;;;;21.77;75.55;100100.75;5011159;28;20045;-49
2023/08/11 04:45:03;;;;;;;10.60;4.55;;;;;;;21.81;75.56;100093.44;5009684;28;20096;-47
2023/08/11 04:47:32;;;;;;;10.60;5.55;;;;;;;21.88;75.10;100095.50;5006767;28;20045;-48
2023/08/11 04:49:59;;;;;;;13.07;5.32;;;;;;;21.94;74.97;100099.53;5024552;28;20137;-50
2023/08/11 04:52:24;;;;;;;8.77;4.53;;;;;;;21.99;74.62;100089.44;5025199;28;20133;-51
2023/08/11 04:54:50;;;;;;;7.82;4.38;;;;;;;22.08;74.43;100082.63;5010226;28;20517;-46
2023/08/11 04:57:16;;;;;;;8.18;3.90;;;;;;;22.16;73.94;100075.78;5009093;28;20037;-51
2023/08/11 04:59:43;;;;;;;5.72;3.83;;;;;;;22.15;73.55;100066.13;5024327;28;20064;-52
2023/08/11 05:02:09;;;;;;;5.85;4.07;;;;;;;22.28;73.55;100082.78;5026337;28;20088;-53
2023/08/11 05:04:35;;;;;;;5.68;3.78;;;;;;;22.29;73.21;100076.53;5024471;28;20057;-48
2023/08/11 05:07:01;;;;;;;4.65;3.95;;;;;;;22.40;72.81;100092.44;5019907;28;20526;-54
2023/08/11 05:09:27;;;;;;;6.57;3.80;;;;;;;22.48;72.32;100093.66;5027615;28;20041;-50
2023/08/11 05:11:53;;;;;;;7.20;3.50;;;;;;;22.46;71.96;100082.31;5025043;28;20440;-51
2023/08/11 05:14:19;;;;;;;4.68;3.33;;;;;;;22.50;71.74;100095.25;5023759;28;20047;-47
2023/08/11 05:16:45;;;;;;;7.78;4.18;;;;;;;22.59;71.63;100091.88;5026549;28;20040;-47
2023/08/11 05:19:12;;;;;;;6.38;3.20;;;;;;;22.68;70.67;100082.34;5024875;28;20038;-47
2023/08/11 05:21:39;;;;;;;7.05;3.22;;;;;;;22.98;70.11;100108.28;5026291;28;20038;-48
2023/08/11 05:24:06;;;;;;;7.53;3.60;;;;;;;22.81;69.40;100072.53;5024163;28;20078;-47
2023/08/11 05:26:32;;;;;;;9.68;3.83;;;;;;;23.06;69.38;100116.50;5033017;28;20053;-50
2023/08/11 05:28:58;;;;;;;6.03;3.72;;;;;;;23.08;69.30;100126.00;5028027;28;20053;-49
2023/08/11 05:31:24;;;;;;;8.10;4.07;;;;;;;23.14;69.18;100122.03;5028904;28;21002;-52
2023/08/11 05:33:52;;;;;;;8.02;4.07;;;;;;;22.92;68.94;100093.75;5029987;28;20048;-46
2023/08/11 05:36:18;;;;;;;8.73;4.20;;;;;;;23.06;69.17;100143.03;5012253;28;20420;-49
2023/08/11 05:38:44;;;;;;;8.52;4.03;;;;;;;23.00;69.41;100143.50;4993846;28;20034;-47
2023/08/11 05:41:10;;;;;;;7.07;3.67;;;;;;;22.71;69.52;100113.97;5027107;28;20097;-48
2023/08/11 05:43:36;;;;;;;6.45;3.85;;;;;;;22.83;69.86;100147.47;5029852;28;20045;-51
2023/08/11 05:46:07;;;;;;;7.43;4.60;;;;;;;22.79;70.44;100153.97;5028144;28;20091;-51
2023/08/11 05:48:33;;;;;;;10.13;3.80;;;;;;;22.79;71.05;100152.19;5028518;28;20038;-50
2023/08/11 05:51:00;;;;;;;9.13;4.70;;;;;;;22.75;72.00;100158.69;5054068;28;20045;-51
2023/08/11 05:53:25;;;;;;;17.23;5.95;;;;;;;22.74;72.86;100151.69;5013134;28;20119;-47
2023/08/11 05:55:51;;;;;;;8.70;4.28;;;;;;;22.73;73.79;100138.53;5030914;28;20045;-46
2023/08/11 05:58:17;;;;;;;6.78;4.20;;;;;;;22.82;74.30;100142.31;5024128;28;20045;-51
2023/08/11 06:00:43;;;;;;;5.60;4.38;;;;;;;23.14;74.16;100143.25;5030652;28;20070;-46
2023/08/11 06:03:09;;;;;;;7.88;3.75;;;;;;;23.50;73.17;100140.34;5029425;28;20056;-48
2023/08/11 06:05:35;;;;;;;7.28;4.65;;;;;;;23.69;72.71;100137.06;5030903;28;20052;-47
2023/08/11 06:08:01;;;;;;;10.85;4.60;;;;;;;23.81;72.44;100135.22;5028064;28;20123;-50
2023/08/11 06:10:27;;;;;;;9.73;4.53;;;;;;;23.74;71.95;100108.31;5025922;28;20050;-48
2023/08/11 06:12:55;;;;;;;8.05;5.20;;;;;;;23.95;71.78;100129.63;5025241;28;20041;-49
2023/08/11 06:15:22;;;;;;;7.15;4.53;;;;;;;23.89;72.10;100132.78;5036424;28;20117;-50
2023/08/11 06:17:50;;;;;;;6.95;4.28;;;;;;;23.90;71.94;100129.16;5026284;28;20045;-51
2023/08/11 06:20:17;;;;;;;7.55;4.47;;;;;;;23.87;72.18;100124.94;5029837;28;20037;-50
2023/08/11 06:22:47;;;;;;;6.75;4.88;;;;;;;23.75;72.26;100109.16;5012631;28;20033;-51
2023/08/11 06:25:15;;;;;;;;;;;;;;;23.69;72.35;100113.16;5012918;28;20814;-51
2023/08/11 06:27:42;;;;;;;7.15;4.78;;;;;;;23.51;72.86;100117.31;5030266;28;19921;-51
2023/08/11 06:30:09;;;;;;;10.50;4.68;;;;;;;23.36;73.51;100118.53;5030111;28;20111;-50
2023/08/11 06:32:37;;;;;;;9.15;4.22;;;;;;;23.15;73.79;100099.84;5024769;28;20044;-50
2023/08/11 06:35:04;;;;;;;8.80;4.72;;;;;;;23.29;73.88;100120.81;5029844;28;20072;-52
2023/08/11 06:37:30;;;;;;;9.85;4.78;;;;;;;23.15;73.96;100098.03;5035913;28;20037;-51
2023/08/11 06:39:58;;;;;;;9.65;5.45;;;;;;;23.20;73.71;100102.97;5031425;28;20041;-51
2023/08/11 06:42:24;;;;;;;9.10;5.15;;;;;;;23.17;73.61;100105.88;5049104;28;20033;-48
2023/08/11 06:45:12;;;;;;;5.95;4.60;;;;;;;23.09;74.73;100121.56;5014891;28;20057;-46
2023/08/11 06:47:38;;;;;;;9.60;6.05;;;;;;;22.93;75.56;100126.38;5026081;28;20045;-52
2023/08/11 06:50:04;;;;;;;6.78;5.00;;;;;;;22.78;76.29;100142.53;5021568;28;20042;-53
2023/08/11 06:52:32;;;;;;;9.37;5.57;;;;;;;22.47;77.17;100116.66;5019482;28;20121;-50
2023/08/11 06:54:58;;;;;;;7.22;5.90;;;;;;;22.58;77.84;100152.94;5031328;28;20824;-53
2023/08/11 06:57:24;;;;;;;8.13;5.50;;;;;;;22.52;78.55;100145.47;5030168;28;20062;-51
2023/08/11 06:59:50;;;;;;;8.00;5.45;;;;;;;22.48;79.12;100141.34;5027954;28;20041;-49
2023/08/11 07:02:16;;;;;;;7.28;5.07;;;;;;;22.45;79.46;100136.31;5024293;28;20181;-51
2023/08/11 07:04:42;;;;;;;10.63;6.38;;;;;;;22.29;79.96;100110.97;5046574;28;20112;-50
2023/08/11 07:07:08;;;;;;;7.53;5.82;;;;;;;22.45;80.12;100139.81;5009527;28;20092;-51
2023/08/11 07:09:34;;;;;;;11.90;7.20;;;;;;;22.44;80.06;100143.41;5010504;28;20049;-47
2023/08/11 07:12:00;;;;;;;11.35;6.10;;;;;;;22.40;79.65;100133.97;5009807;28;20044;-47
2023/08/11 07:14:27;;;;;;;8.73;6.28;;;;;;;22.47;80.13;100131.72;5023146;28;20073;-49
2023/08/11 07:16:53;;;;;;;9.70;5.90;;;;;;;22.62;79.57;100110.19;5028768;28;20526;-52
2023/08/11 07:19:20;;;;;;;10.10;5.68;;;;;;;23.48;77.84;100125.53;5052077;28;20030;-51
2023/08/11 07:21:46;;;;;;;9.82;5.90;;;;;;;24.13;75.00;100130.72;5007788;28;20057;-49
2023/08/11 07:24:12;;;;;;;10.85;6.38;;;;;;;24.30;73.59;100129.34;5020849;28;20128;-50
2023/08/11 07:26:38;;;;;;;12.38;6.18;;;;;;;24.61;72.46;100133.75;5023992;28;20041;-52
2023/08/11 07:29:04;;;;;;;10.02;6.22;;;;;;;24.83;70.78;100108.81;5023859;28;20049;-52
2023/08/11 07:31:30;;;;;;;8.20;6.25;;;;;;;25.04;69.58;100111.47;5024707;28;20052;-54
2023/08/11 07:33:56;;;;;;;10.32;5.95;;;;;;;25.80;67.09;100105.53;5028139;28;20038;-48
2023/08/11 07:36:22;;;;;;;11.52;6.60;;;;;;;26.58;64.33;100104.47;5021233;28;20080;-54
2023/08/11 07:38:48;;;;;;;10.00;6.07;;;;;;;26.79;62.68;100090.94;5021583;28;20041;-54
2023/08/11 07:41:14;;;;;;;9.98;6.60;;;;;;;26.90;62.09;100098.78;5022365;28;20045;-51
2023/08/11 07:43:40;;;;;;;10.07;7.70;;;;;;;27.05;61.00;100062.63;5025336;28;20046;-51
2023/08/11 07:46:06;;;;;;;9.00;5.72;;;;;;;27.88;59.19;100074.03;5020738;28;20223;-50
2023/08/11 07:48:32;;;;;;;9.10;5.82;;;;;;;28.87;56.51;100062.03;5007722;28;20099;-50
2023/08/11 07:50:58;;;;;;;7.75;5.97;;;;;;;28.69;56.38;100083.47;5026529;28;20041;-51
2023/08/11 07:53:24;;;;;;;13.45;7.18;;;;;;;28.36;56.38;100089.66;5028599;28;20052;-47
2023/08/11 07:55:50;;;;;;;8.35;5.90;;;;;;;28.62;55.14;100085.97;5027708;28;20041;-54
2023/08/11 07:58:16;;;;;;;9.25;6.18;;;;;;;29.14;53.75;100069.00;5032427;28;20396;-52
2023/08/11 08:00:42;;;;;;;6.70;5.95;;;;;;;29.38;52.71;100082.50;5020916;28;20044;-48
2023/08/11 08:03:07;;;;;;;9.82;6.60;;;;;;;29.41;52.19;100075.00;5021276;28;20057;-51
2023/08/11 08:05:33;;;;;;;7.55;6.07;;;;;;;28.97;52.65;100073.47;5027666;28;20041;-52
2023/08/11 08:07:59;;;;;;;12.30;6.80;;;;;;;28.68;52.92;100070.28;5009413;28;20044;-49
2023/08/11 08:10:25;;;;;;;7.28;5.95;;;;;;;28.33;53.67;100066.72;5027376;28;20042;-53
2023/08/11 08:12:51;;;;;;;9.25;5.55;;;;;;;28.12;53.90;100056.38;5023275;28;20049;-51
2023/08/11 08:15:18;;;;;;;7.45;6.30;;;;;;;28.03;54.37;100053.75;5018197;28;20132;-49
2023/08/11 08:17:45;;;;;;;8.27;6.30;;;;;;;28.49;53.79;100052.59;5023271;28;20049;-49
2023/08/11 08:20:14;;;;;;;8.95;6.07;;;;;;;30.73;49.45;100046.97;5018837;28;20065;-51
2023/08/11 08:22:41;;;;;;;8.95;6.25;;;;;;;31.70;47.33;100050.22;5003525;28;20080;-51
2023/08/11 08:25:07;;;;;;;13.15;6.25;;;;;;;32.89;45.18;100039.47;5007385;28;20052;-53
2023/08/11 08:27:35;;;;;;;11.52;5.43;;;;;;;33.38;43.45;100042.38;5027212;28;20164;-52
2023/08/11 08:30:01;;;;;;;7.72;5.53;;;;;;;34.39;41.70;100037.50;5026493;28;20146;-51
2023/08/11 08:32:29;;;;;;;10.02;5.40;;;;;;;34.40;40.53;100027.53;4993425;28;20504;-51
2023/08/11 08:34:55;;;;;;;9.18;5.22;;;;;;;33.37;42.10;100030.75;5012686;28;20057;-54
2023/08/11 08:37:21;;;;;;;7.43;5.85;;;;;;;32.28;43.55;100028.88;5021994;28;20132;-52
2023/08/11 08:39:47;;;;;;;10.80;5.07;;;;;;;32.21;43.59;100037.84;4993031;28;20234;-48
2023/08/11 08:42:14;;;;;;;6.20;5.47;;;;;;;31.50;44.47;100034.53;5023364;28;20431;-56
2023/08/11 08:44:41;;;;;;;7.67;5.03;;;;;;;30.60;45.90;100002.91;5027468;28;20049;-47
2023/08/11 08:47:08;;;;;;;8.18;5.47;;;;;;;30.08;46.66;100048.94;5002672;28;20041;-51
2023/08/11 08:49:38;;;;;;;9.05;5.18;;;;;;;29.33;48.24;100018.69;5024717;28;20041;-53
2023/08/11 08:52:05;;;;;;;9.85;5.18;;;;;;;29.29;48.87;100040.59;5025255;28;20736;-48
2023/08/11 08:54:32;;;;;;;9.48;4.97;;;;;;;30.04;47.65;100036.88;5006625;28;20524;-51
2023/08/11 08:56:59;;;;;;;8.13;6.07;;;;;;;31.00;45.76;100045.69;5022265;28;20132;-51
2023/08/11 08:59:25;;;;;;;5.18;4.68;;;;;;;31.39;44.90;100052.91;5022389;28;20033;-52
2023/08/11 09:01:51;;;;;;;8.10;4.70;;;;;;;31.28;44.51;100051.47;5026974;28;20071;-52
2023/08/11 09:04:19;;;;;;;7.43;5.30;;;;;;;30.97;45.35;100050.59;5030278;28;20600;-51
2023/08/11 09:06:45;;;;;;;6.82;4.90;;;;;;;30.70;45.47;100014.28;5016062;28;20504;-47
2023/08/11 09:09:12;;;;;;;5.07;4.40;;;;;;;30.84;45.92;100042.22;5033536;28;20036;-51
2023/08/11 09:11:39;;;;;;;6.57;4.68;;;;;;;30.45;46.00;100037.66;5060182;28;20103;-52
2023/08/11 09:14:06;;;;;;;5.55;4.97;;;;;;;29.98;47.23;100047.44;5027259;28;20190;-50
2023/08/11 09:16:39;;;;;;;5.45;4.90;;;;;;;29.51;47.86;100042.69;5027885;28;20045;-52
2023/08/11 09:19:09;;;;;;;7.28;4.82;;;;;;;29.04;48.56;100045.88;5029149;28;20034;-53
2023/08/11 09:21:35;;;;;;;7.05;5.70;;;;;;;28.56;49.58;100042.97;5012330;28;20037;-49
2023/08/11 09:24:01;;;;;;;9.15;4.47;;;;;;;28.16;50.59;100041.69;5029833;28;20037;-50
2023/08/11 09:26:27;;;;;;;7.88;5.05;;;;;;;27.94;50.96;100036.84;5013130;28;20375;-47
2023/08/11 09:28:54;;;;;;;6.45;4.50;;;;;;;27.71;51.67;100048.97;5028259;28;20045;-52
2023/08/11 09:31:24;;;;;;;6.05;4.63;;;;;;;27.40;51.96;100027.13;5025073;28;20080;-51
2023/08/11 09:33:51;;;;;;;5.68;4.50;;;;;;;27.56;52.37;100053.19;5058474;28;20087;-49
2023/08/11 09:36:19;;;;;;;6.70;5.28;;;;;;;27.48;52.51;100040.53;5023938;28;20056;-51
2023/08/11 09:38:46;;;;;;;7.82;5.43;;;;;;;27.17;53.33;100041.88;5026415;28;20038;-52
2023/08/11 09:41:13;;;;;;;6.50;5.30;;;;;;;27.03;53.54;100040.56;5022979;28;20532;-50
2023/08/11 09:43:45;;;;;;;11.35;5.30;;;;;;;26.79;54.20;100021.56;5023118;28;20123;-52
2023/08/11 09:46:11;;;;;;;7.05;4.97;;;;;;;26.65;54.69;100046.03;5023675;28;20516;-48
2023/08/11 09:48:37;;;;;;;7.93;5.40;;;;;;;26.27;55.54;100031.03;5011100;28;20132;-50
2023/08/11 09:51:04;;;;;;;7.18;5.13;;;;;;;25.99;57.01;100046.88;5028168;28;20195;-46
2023/08/11 09:53:30;;;;;;;9.15;5.93;;;;;;;25.96;58.30;100043.69;4995426;28;20073;-50
2023/08/11 09:55:57;;;;;;;7.72;5.80;;;;;;;25.95;59.30;100050.81;5020544;28;20595;-49
2023/08/11 09:58:26;;;;;;;10.15;5.75;;;;;;;25.87;59.88;100021.38;5028441;28;20044;-52
2023/08/11 10:00:54;;;;;;;8.88;6.55;;;;;;;25.97;60.67;100034.66;5061436;28;20513;-53
2023/08/11 10:03:26;;;;;;;7.93;6.22;;;;;;;25.95;60.85;100021.50;5011539;28;20071;-52
2023/08/11 10:05:54;;;;;;;8.70;6.60;;;;;;;25.91;61.43;100028.09;5028008;28;20041;-50
2023/08/11 10:08:22;;;;;;;9.38;6.22;;;;;;;25.73;62.05;100029.78;5012007;28;20049;-52
2023/08/11 10:10:48;;;;;;;6.35;5.60;;;;;;;25.57;62.98;100024.19;4995586;28;20041;-50
2023/08/11 10:13:25;;;;;;;8.40;5.65;;;;;;;25.54;63.63;100027.91;5021724;28;20080;-52
2023/08/11 10:15:53;;;;;;;9.93;6.23;;;;;;;25.46;63.64;100027.78;5024611;28;20045;-52
2023/08/11 10:18:20;;;;;;;8.13;6.20;;;;;;;25.36;63.69;100026.09;5030910;28;20346;-53
2023/08/11 10:20:49;;;;;;;7.38;5.90;;;;;;;25.26;63.96;100034.91;5027157;28;20038;-50
2023/08/11 10:23:18;;;;;;;6.30;5.63;;;;;;;25.12;64.06;100045.13;5031729;28;20543;-54
2023/08/11 10:25:45;;;;;;;8.10;6.33;;;;;;;24.95;64.45;100029.81;5028798;28;20156;-53
2023/08/11 10:28:12;;;;;;;7.75;6.13;;;;;;;25.01;64.33;100035.44;5027755;28;20038;-47
2023/08/11 10:30:40;;;;;;;8.02;6.57;;;;;;;25.28;63.78;100054.25;5023148;28;20527;-51
2023/08/11 10:33:07;;;;;;;8.10;6.22;;;;;;;25.25;63.81;100021.75;5009148;28;20548;-55
2023/08/11 10:35:35;;;;;;;7.82;6.38;;;;;;;25.45;63.30;100026.09;5026559;28;20566;-53
2023/08/11 10:38:04;;;;;;;12.20;6.85;;;;;;;25.61;63.71;100038.91;5021593;28;20478;-52
2023/08/11 10:40:35;;;;;;;9.07;6.68;;;;;;;25.49;63.58;100008.06;5054894;28;20049;-49
2023/08/11 10:43:02;;;;;;;11.48;6.85;;;;;;;25.59;63.78;100039.03;5027810;28;20228;-51
2023/08/11 10:45:31;;;;;;;7.07;6.38;;;;;;;25.51;63.77;100038.03;5026554;28;20045;-49
2023/08/11 10:47:58;;;;;;;9.90;6.38;;;;;;;25.42;64.04;100039.72;5026598;28;20627;-49
2023/08/11 10:50:26;;;;;;;13.10;6.93;;;;;;;25.28;64.71;100046.25;4990970;28;20075;-50
2023/08/11 10:53:21;;;;;;;7.72;6.45;;;;;;;25.17;65.03;100045.56;5019941;28;20541;-52
2023/08/11 10:56:01;;;;;;;8.10;6.63;;;;;;;25.04;65.51;100043.13;4995246;28;20064;-53
2023/08/11 10:58:29;;;;;;;7.72;6.93;;;;;;;24.93;65.55;100007.81;5028639;28;20072;-49
2023/08/11 11:00:56;;;;;;;7.45;6.28;;;;;;;25.17;65.57;100018.94;5027803;28;20057;-51
2023/08/11 11:03:22;;;;;;;7.35;6.60;;;;;;;25.26;65.51;100013.63;5022758;28;20058;-53
2023/08/11 11:05:48;;;;;;;12.35;7.60;;;;;;;25.30;65.79;100004.38;5019299;28;20052;-52
2023/08/11 11:08:14;;;;;;;12.35;6.82;;;;;;;25.37;66.01;99993.19;5037582;28;20784;-49
2023/08/11 11:10:41;;;;;;;10.52;7.00;;;;;;;25.22;66.02;99969.66;5027879;28;20044;-47
2023/08/11 11:13:07;;;;;;;10.77;7.90;;;;;;;25.40;65.68;99992.88;5026293;28;20539;-53
2023/08/11 11:15:34;;;;;;;15.15;7.35;;;;;;;25.48;65.57;100001.88;5027359;28;20045;-50
2023/08/11 11:18:00;;;;;;;11.10;7.70;;;;;;;25.61;65.61;100007.78;5027435;28;20087;-49
2023/08/11 11:20:27;;;;;;;8.50;7.15;;;;;;;25.54;65.95;100000.47;5026276;28;20045;-47
2023/08/11 11:22:55;;;;;;;14.30;8.07;;;;;;;25.46;66.29;100000.31;5027572;28;20136;-49
2023/08/11 11:25:21;;;;;;;;;;;;;;;25.45;66.22;100010.13;5010451;28;20049;-48